< < Back
Terminal Aerodrome Forecast


Current Version              Previous Versions:   1  2  3  4  5  6  7  8  9  

Terminal Aerodrome Forecast

486
FTUS44 KBMX 231120
TAFTCL
TAF
KTCL 231120Z 2312/2412 00000KT P6SM SKC
     FM231700 33006KT P6SM SKC=

Latest METAR

229
SAUS70 KWBC 241200 RRH
MTRTCL
METAR KTCL 241153Z 00000KT 6SM BR CLR 15/14 A3010 RMK AO2 SLP192
T01500144 10161 20128 53019


USA.gov is the U.S. government's official web portal to all federal, state and local government web resources and services.